createdAt,value
2018-04-19T00:01:11.095Z,12.63
2018-04-19T00:03:39.917Z,12.63
2018-04-19T00:06:08.486Z,12.61
2018-04-19T00:08:39.697Z,12.60
2018-04-19T00:11:08.146Z,12.59
2018-04-19T00:13:38.501Z,12.57
2018-04-19T00:16:07.920Z,12.57
2018-04-19T00:18:36.655Z,12.57
2018-04-19T00:21:05.323Z,12.56
2018-04-19T00:23:35.682Z,12.56
2018-04-19T00:26:06.640Z,12.57
2018-04-19T00:28:39.957Z,12.58
2018-04-19T00:31:08.509Z,12.58
2018-04-19T00:33:37.297Z,12.56
2018-04-19T00:36:05.985Z,12.54
2018-04-19T00:38:35.699Z,12.53
2018-04-19T00:41:04.390Z,12.49
2018-04-19T00:43:33.073Z,12.47
2018-04-19T00:46:04.281Z,12.46
2018-04-19T00:48:33.438Z,12.44
2018-04-19T00:51:02.116Z,12.41
2018-04-19T00:53:31.080Z,12.38
2018-04-19T00:56:05.704Z,12.35
2018-04-19T00:58:34.398Z,12.31
2018-04-19T01:01:03.018Z,12.26
2018-04-19T01:03:35.635Z,12.22
2018-04-19T01:06:04.385Z,12.17
2018-04-19T01:08:33.041Z,12.14
2018-04-19T01:11:01.804Z,12.11
2018-04-19T01:13:32.201Z,12.08
2018-04-19T01:16:01.572Z,12.04
2018-04-19T01:18:31.076Z,12.02
2018-04-19T01:20:59.812Z,12.01
2018-04-19T01:23:28.593Z,12.00
2018-04-19T01:25:57.582Z,11.99
2018-04-19T01:28:28.840Z,11.98
2018-04-19T01:30:57.725Z,11.96
2018-04-19T01:33:26.667Z,11.94
2018-04-19T01:36:09.729Z,11.93
2018-04-19T01:38:38.535Z,11.93
2018-04-19T01:41:07.420Z,11.92
2018-04-19T01:43:36.331Z,11.91
2018-04-19T01:46:05.109Z,11.90
2018-04-19T01:48:34.819Z,11.89
2018-04-19T01:51:06.280Z,11.88
2018-04-19T01:53:34.983Z,11.86
2018-04-19T01:56:06.519Z,11.84
2018-04-19T01:58:35.176Z,11.81
2018-04-19T02:01:06.650Z,11.79
2018-04-19T02:03:35.452Z,11.75
2018-04-19T02:06:06.993Z,11.72
2018-04-19T02:08:35.411Z,11.68
2018-04-19T02:11:08.373Z,11.65
2018-04-19T02:13:36.819Z,11.65
2018-04-19T02:16:05.047Z,11.63
2018-04-19T02:18:33.285Z,11.63
2018-04-19T02:21:01.499Z,11.62
2018-04-19T02:23:29.829Z,11.60
2018-04-19T02:26:00.678Z,11.58
2018-04-19T02:28:29.193Z,11.56
2018-04-19T02:30:59.456Z,11.55
2018-04-19T02:33:34.039Z,11.50
2018-04-19T02:36:02.245Z,11.49
2018-04-19T02:38:33.336Z,11.47
2018-04-19T02:41:01.609Z,11.45
2018-04-19T02:43:32.555Z,11.43
2018-04-19T02:46:00.843Z,11.40
2018-04-19T02:48:29.326Z,11.38
2018-04-19T02:51:00.043Z,11.35
2018-04-19T02:53:28.691Z,11.35
2018-04-19T02:55:57.288Z,11.31
2018-04-19T02:58:25.930Z,11.30
2018-04-19T03:00:54.401Z,11.29
2018-04-19T03:03:23.798Z,11.26
2018-04-19T03:05:53.890Z,11.23
2018-04-19T03:08:23.631Z,11.21
2018-04-19T03:10:52.042Z,11.22
2018-04-19T03:13:21.012Z,11.22
2018-04-19T03:15:49.212Z,11.20
2018-04-19T03:18:17.408Z,11.18
2018-04-19T03:20:45.616Z,11.15
2018-04-19T03:23:15.005Z,11.13
2018-04-19T03:25:45.085Z,11.10
2018-04-19T03:28:13.309Z,11.09
2018-04-19T03:30:42.056Z,11.07
2018-04-19T03:33:10.257Z,11.06
2018-04-19T03:35:38.479Z,11.04
2018-04-19T03:38:06.783Z,11.02
2018-04-19T03:40:34.997Z,11.01
2018-04-19T03:43:03.921Z,11.01
2018-04-19T03:45:32.210Z,11.00
2018-04-19T03:48:00.441Z,11.00
2018-04-19T03:50:28.745Z,11.00
2018-04-19T03:53:02.127Z,10.99
2018-04-19T03:55:31.079Z,10.95
2018-04-19T03:57:59.250Z,10.91
2018-04-19T04:00:27.521Z,10.88
2018-04-19T20:29:03.047Z,17.78
2018-04-19T20:31:31.527Z,17.75
2018-04-19T20:33:59.972Z,17.71
2018-04-19T20:36:28.438Z,17.68
2018-04-19T20:38:56.989Z,17.63
2018-04-19T20:41:25.395Z,17.60
2018-04-19T20:43:53.922Z,17.57
2018-04-19T20:46:22.402Z,17.54
2018-04-19T20:48:50.890Z,17.51
2018-04-19T20:51:19.231Z,17.49
2018-04-19T20:53:49.362Z,17.48
2018-04-19T20:56:17.898Z,17.47
2018-04-19T20:58:46.403Z,17.46
2018-04-19T21:01:14.918Z,17.44
2018-04-19T21:03:43.658Z,17.38
2018-04-19T21:06:12.251Z,17.37
2018-04-19T21:08:40.497Z,17.34
2018-04-19T21:11:08.970Z,17.32
2018-04-19T21:13:37.400Z,17.29
2018-04-19T21:16:05.978Z,17.27
2018-04-19T21:18:34.412Z,17.23
2018-04-19T21:21:03.564Z,17.19
2018-04-19T21:23:32.041Z,17.14
2018-04-19T21:26:00.445Z,17.08
2018-04-19T21:28:28.946Z,17.02
2018-04-19T21:30:57.464Z,16.96
2018-04-19T21:33:25.882Z,16.91
2018-04-19T21:35:54.255Z,16.86
2018-04-19T21:38:22.721Z,16.81
2018-04-19T21:40:51.907Z,16.74
2018-04-19T21:43:20.358Z,16.68
2018-04-19T21:45:48.790Z,16.62
2018-04-19T21:48:17.277Z,16.59
2018-04-19T21:50:45.775Z,16.55
2018-04-19T21:53:14.278Z,16.50
2018-04-19T21:55:42.757Z,16.46
2018-04-19T21:58:11.238Z,16.40
2018-04-19T22:00:39.718Z,16.37
2018-04-19T22:03:09.175Z,16.33
2018-04-19T22:05:37.686Z,16.30
2018-04-19T22:08:06.200Z,16.27
2018-04-19T22:10:34.642Z,16.24
2018-04-19T22:13:03.177Z,16.23
2018-04-19T22:15:31.696Z,16.20
2018-04-19T22:18:00.173Z,16.19
2018-04-19T22:20:28.677Z,16.18
2018-04-19T22:22:56.951Z,16.13
2018-04-19T22:25:25.430Z,16.10
2018-04-19T22:27:53.855Z,16.05
2018-04-19T22:30:22.346Z,15.99
2018-04-19T22:32:51.988Z,15.95
2018-04-19T22:35:20.451Z,15.93
2018-04-19T22:37:48.963Z,15.90
2018-04-19T22:40:17.471Z,15.83
2018-04-19T22:42:46.010Z,15.79
2018-04-19T22:45:14.483Z,15.76
2018-04-19T22:47:42.958Z,15.73
2018-04-19T22:50:11.448Z,15.71
2018-04-19T22:52:39.926Z,15.68
2018-04-19T22:55:08.480Z,15.65
2018-04-19T22:57:37.000Z,15.61
2018-04-19T23:00:05.643Z,15.59
2018-04-19T23:02:34.070Z,15.54
2018-04-19T23:05:02.426Z,15.52
2018-04-19T23:07:30.872Z,15.52
2018-04-19T23:09:59.365Z,15.50
2018-04-19T23:12:27.529Z,15.47
2018-04-19T23:14:56.038Z,15.46
2018-04-19T23:17:24.564Z,15.44
2018-04-19T23:19:53.844Z,15.43
2018-04-19T23:22:33.928Z,15.43
2018-04-19T23:25:02.505Z,15.45
2018-04-19T23:27:31.052Z,15.44
2018-04-19T23:29:59.441Z,15.42
2018-04-19T23:32:27.949Z,15.40
2018-04-19T23:34:56.388Z,15.39
2018-04-19T23:37:24.822Z,15.37
2018-04-19T23:39:54.624Z,15.36
2018-04-19T23:42:23.033Z,15.35
2018-04-19T23:44:51.535Z,15.34
2018-04-19T23:47:20.053Z,15.33
2018-04-19T23:49:48.573Z,15.30
2018-04-19T23:52:17.016Z,15.28
2018-04-19T23:54:45.569Z,15.25
2018-04-19T23:57:14.156Z,15.24
2018-04-19T23:59:43.229Z,15.21
